This is the latest recevied weather packets stored in our database for station/object DL6MM-4. If no packets are shown the sender has not sent any weather packets the latest 10 day(s).
| Time | Temp. | Humidity | Pressure | Rain* | Wind** | Luminosity | Snow |
|---|---|---|---|---|---|---|---|
| 1777867756 | 13.33° C | 77% | 1010.7 hPa | 0 mm | - | - | - |
| 1777867155 | 12.78° C | 80% | 1010.7 hPa | 0 mm | - | - | - |
| 1777866555 | 11.67° C | 83% | 1010.6 hPa | 0 mm | - | - | - |
| 1777865955 | 11.67° C | 83% | 1010.6 hPa | 0 mm | - | - | - |
| 1777865355 | 11.11° C | 84% | 1010.6 hPa | 0 mm | - | - | - |
| 1777864755 | 11.11° C | 84% | 1010.6 hPa | 0 mm | - | - | - |
| 1777864155 | 10.56° C | 85% | 1010.6 hPa | 0 mm | - | - | - |
| 1777863555 | 10.56° C | 84% | 1010.6 hPa | 0 mm | - | - | - |
| 1777862955 | 10° C | 84% | 1010.6 hPa | 0 mm | - | - | - |
| 1777862355 | 10° C | 84% | 1010.5 hPa | 0 mm | - | - | - |
| 1777861755 | 10.56° C | 83% | 1010.5 hPa | 0 mm | - | - | - |
| 1777861155 | 10.56° C | 83% | 1010.4 hPa | 0 mm | - | - | - |
| 1777860555 | 10.56° C | 83% | 1010.4 hPa | 0 mm | - | - | - |
| 1777859955 | 10.56° C | 83% | 1010.5 hPa | 0 mm | - | - | - |
| 1777859355 | 10.56° C | 83% | 1010.5 hPa | 0 mm | - | - | - |
| 1777858755 | 11.11° C | 81% | 1010.6 hPa | 0 mm | - | - | - |
| 1777858155 | 11.67° C | 81% | 1010.4 hPa | 0 mm | - | - | - |
| 1777857555 | 11.67° C | 80% | 1010.2 hPa | 0 mm | - | - | - |
| 1777856955 | 13.33° C | 74% | 1010.2 hPa | 0 mm | - | - | - |
| 1777856355 | 14.44° C | 72% | 1010.1 hPa | 0 mm | - | - | - |
| 1777855755 | 14.44° C | 70% | 1010.2 hPa | 0 mm | - | - | - |
| 1777855155 | 14.44° C | 72% | 1010.5 hPa | 0 mm | - | - | - |
| 1777854555 | 14.44° C | 71% | 1010.4 hPa | 0 mm | - | - | - |
| 1777853955 | 14.44° C | 70% | 1010.2 hPa | 0 mm | - | - | - |
| 1777853355 | 15° C | 68% | 1010.2 hPa | 0 mm | - | - | - |
* Rain latest hour (hover to see other rain measurements)
** Current wind speed in m/s (hover to see current wind gust speed)